Pagrindinis puslapis
METAR-TAF:

METAR-TAF

Oro uostai :

Librevilio oro uostas

Librevilis, Gabonas

platuma: 00-27N, ilguma: 009-25E, Aukštis: 12 m

Dabartinis oras

Ataskaita buvo paskelbta 51 minutes, ne 12:00 UTC
Vėjas 6 kt iš Pietų/Pietvakarių, svyruoja nuo Pietų ir Vakarų/Pietvakarių
Temperatūra 27°C
Drėgmė 84%
Slėgis 1011 hPa
Matomumas 10 km arba daugiau
Išsisklaidę debesys ne aukštis 900 ft
Su prošvaistėmis ne aukštis 2800 ft

METAR: FOOL 171200Z 21006KT 170V250 9999 SCT009 BKN028 27/24 Q1011 NOSIG

Laikas: 13:51 (12:51 UTC)

Prognozė

Ataskaita buvo paskelbta 1 valandą ir 51 minutes, ne 11:00 UTC
Prognozė galioja nuo 17 metu 12 UTC su 18 metu 18 UTC
Vėjas 6 kt iš Pietų
Matomumas 10 km arba daugiau
Išsisklaidę debesys ne aukštis 800 ft
Su prošvaistėmis ne aukštis 3000 ft

TAF: FOOL 171100Z 1712/1818 18006KT 9999 SCT008 BKN030

Orai ataskaitas ir orų prognozės (METAR, TAF).

turimą stotys yra geltonos ir raudonos taškus žemėlapyje.

Perkelti pele per norėdami pamatyti stoties vardą.

Tada spustelėkite, norėdami matyti oro stebėjimo ir prognozės.

Norėdami pakeisti žemėlapį: spustelėkite ant žalios mygtukų su juodo kryžiaus žemyn,; žalią mygtuką su brūkšneliu, jei norite nutolinti; arba žalių rodyklių gretimoms žemėlapius.


METAR-TAF: